createdAt,value
2018-09-03T00:01:20.775Z,73.50
2018-09-03T00:03:48.318Z,73.40
2018-09-03T00:06:15.766Z,73.30
2018-09-03T00:08:43.206Z,73.30
2018-09-03T00:11:10.652Z,74.10
2018-09-03T00:13:38.197Z,74.20
2018-09-03T00:16:05.680Z,74.50
2018-09-03T00:18:33.186Z,74.80
2018-09-03T00:21:00.700Z,74.30
2018-09-03T00:23:28.130Z,74.30
2018-09-03T00:25:56.608Z,74.50
2018-09-03T00:28:24.089Z,74.30
2018-09-03T00:30:54.787Z,73.60
2018-09-03T00:33:27.980Z,74.10
2018-09-03T00:36:01.148Z,73.50
2018-09-03T00:38:34.343Z,73.20
2018-09-03T00:41:07.276Z,72.80
2018-09-03T00:43:40.418Z,72.70
2018-09-03T00:46:13.418Z,72.70
2018-09-03T00:48:40.860Z,72.30
2018-09-03T00:51:08.324Z,72.30
2018-09-03T00:53:35.772Z,72.20
2018-09-03T00:56:03.172Z,72.30
2018-09-03T00:58:30.696Z,72.50
2018-09-03T01:00:58.177Z,72.50
2018-09-03T01:03:25.688Z,72.40
2018-09-03T01:05:53.197Z,72.50
2018-09-03T01:08:20.664Z,72.50
2018-09-03T01:10:48.131Z,72.20
2018-09-03T01:13:15.621Z,73.00
2018-09-03T01:15:43.084Z,72.40
2018-09-03T01:18:10.559Z,72.70
2018-09-03T01:20:38.041Z,72.60
2018-09-03T01:23:05.501Z,73.00
2018-09-03T01:25:32.974Z,73.30
2018-09-03T01:28:00.414Z,73.20
2018-09-03T01:30:27.889Z,73.80
2018-09-03T01:32:55.331Z,73.50
2018-09-03T01:35:22.812Z,73.80
2018-09-03T01:37:50.306Z,73.80
2018-09-03T01:40:17.690Z,74.00
2018-09-03T01:42:45.176Z,73.60
2018-09-03T01:45:12.656Z,73.90
2018-09-03T01:47:40.077Z,73.60
2018-09-03T01:50:07.529Z,73.40
2018-09-03T01:52:34.961Z,74.50
2018-09-03T01:55:02.451Z,74.30
2018-09-03T01:57:29.876Z,74.40
2018-09-03T01:59:57.426Z,74.30
2018-09-03T02:02:24.935Z,74.80
2018-09-03T02:04:52.389Z,74.60
2018-09-03T02:07:19.752Z,74.20
2018-09-03T02:09:47.179Z,74.60
2018-09-03T02:12:14.671Z,74.30
2018-09-03T02:14:43.521Z,74.10
2018-09-03T02:17:12.306Z,74.40
2018-09-03T02:19:39.747Z,74.40
2018-09-03T02:22:07.924Z,74.50
2018-09-03T02:24:35.442Z,75.50
2018-09-03T02:27:02.898Z,75.40
2018-09-03T02:29:30.454Z,75.30
2018-09-03T02:31:57.945Z,75.50
2018-09-03T02:34:25.621Z,75.10
2018-09-03T02:36:53.058Z,75.40
2018-09-03T02:39:20.574Z,75.40
2018-09-03T02:41:47.980Z,75.20
2018-09-03T02:44:15.461Z,75.30
2018-09-03T02:46:42.931Z,76.30
2018-09-03T02:49:10.390Z,75.80
2018-09-03T02:51:38.006Z,76.60
2018-09-03T02:54:05.491Z,77.20
2018-09-03T02:56:33.055Z,77.20
2018-09-03T02:59:00.522Z,77.20
2018-09-03T03:01:28.020Z,77.10
2018-09-03T03:03:55.512Z,76.70
2018-09-03T03:06:22.925Z,76.40
2018-09-03T03:08:50.378Z,75.80
2018-09-03T03:11:17.924Z,75.70
2018-09-03T03:13:45.355Z,75.60
2018-09-03T03:16:12.873Z,76.20
2018-09-03T03:18:40.629Z,76.30
2018-09-03T03:21:08.084Z,77.10
2018-09-03T03:23:35.544Z,77.50
2018-09-03T03:26:03.082Z,77.50
2018-09-03T03:28:30.579Z,76.40
2018-09-03T03:30:58.004Z,76.40
2018-09-03T03:33:25.384Z,76.40
2018-09-03T03:35:52.896Z,76.60
2018-09-03T03:38:20.338Z,76.50
2018-09-03T03:40:47.813Z,77.60
2018-09-03T03:43:15.261Z,77.80
2018-09-03T03:45:42.804Z,77.30
2018-09-03T03:48:10.229Z,77.20
2018-09-03T03:50:37.677Z,76.60
2018-09-03T03:53:05.114Z,76.50
2018-09-03T03:55:32.627Z,76.60
2018-09-03T03:58:00.079Z,77.10
2018-09-03T04:00:27.448Z,77.60
2018-09-03T04:02:54.873Z,77.30
2018-09-03T04:05:22.404Z,78.00
2018-09-03T04:07:49.887Z,77.60
2018-09-03T04:10:17.356Z,78.20
2018-09-03T04:12:50.386Z,78.70
2018-09-03T04:15:17.838Z,78.90
2018-09-03T04:17:45.219Z,78.70
2018-09-03T04:20:12.676Z,79.00
2018-09-03T04:22:40.174Z,78.50
2018-09-03T04:25:07.548Z,78.60
2018-09-03T04:27:35.035Z,78.00
2018-09-03T04:30:02.459Z,78.50
2018-09-03T04:32:29.883Z,78.70
2018-09-03T04:34:57.273Z,78.70
2018-09-03T04:37:24.769Z,78.40
2018-09-03T04:39:52.129Z,78.10
2018-09-03T04:42:19.571Z,78.50
2018-09-03T04:44:47.082Z,78.50
2018-09-03T04:47:14.580Z,78.80
2018-09-03T04:49:41.992Z,79.80
2018-09-03T04:52:09.436Z,79.10
2018-09-03T04:54:36.939Z,79.00
2018-09-03T04:57:04.571Z,79.60
2018-09-03T04:59:32.107Z,78.70
2018-09-03T05:01:59.593Z,78.70
2018-09-03T05:04:27.039Z,79.00
2018-09-03T05:06:54.442Z,78.40
2018-09-03T05:09:21.850Z,79.00
2018-09-03T05:11:49.381Z,79.10
2018-09-03T05:14:16.865Z,79.90
2018-09-03T05:16:44.262Z,79.40
2018-09-03T05:19:11.717Z,79.30
2018-09-03T05:21:39.245Z,79.40
2018-09-03T05:24:06.832Z,79.80
2018-09-03T05:26:34.321Z,78.90
2018-09-03T05:29:01.841Z,79.20
2018-09-03T05:31:29.279Z,79.70
2018-09-03T05:33:56.716Z,79.30
2018-09-03T05:36:24.158Z,78.40
2018-09-03T05:38:51.687Z,78.80
2018-09-03T05:41:19.172Z,78.00
2018-09-03T05:43:46.585Z,78.30
2018-09-03T05:46:14.020Z,78.50
2018-09-03T05:48:41.408Z,79.20
2018-09-03T05:51:08.900Z,78.90
2018-09-03T05:53:36.361Z,78.60
2018-09-03T05:56:03.993Z,79.40
2018-09-03T05:58:31.544Z,79.60
2018-09-03T06:00:59.792Z,79.20
2018-09-03T06:03:27.295Z,80.00
2018-09-03T06:05:54.809Z,80.20
2018-09-03T06:08:22.359Z,79.50
2018-09-03T06:10:49.844Z,79.30
2018-09-03T06:13:17.276Z,79.60
2018-09-03T06:15:44.937Z,80.00
2018-09-03T06:18:12.416Z,79.00
2018-09-03T06:20:39.887Z,79.70
2018-09-03T06:23:07.451Z,79.10
2018-09-03T06:25:34.879Z,78.90
2018-09-03T06:28:02.300Z,78.40
2018-09-03T06:30:29.716Z,78.50
2018-09-03T06:32:57.302Z,79.00
2018-09-03T06:35:24.809Z,79.40
2018-09-03T06:37:52.351Z,79.20
2018-09-03T06:40:19.839Z,80.30
2018-09-03T06:42:47.365Z,81.00
2018-09-03T06:45:14.949Z,79.60
2018-09-03T06:47:42.389Z,79.20
2018-09-03T06:50:09.983Z,80.50
2018-09-03T06:52:37.444Z,78.80
2018-09-03T06:55:05.439Z,79.00
2018-09-03T06:57:32.941Z,78.80
2018-09-03T07:00:00.321Z,79.30
2018-09-03T07:02:27.891Z,79.20
2018-09-03T07:04:55.394Z,79.00
2018-09-03T07:07:22.848Z,79.00
2018-09-03T07:09:50.278Z,78.30
2018-09-03T07:12:17.707Z,78.60
2018-09-03T07:14:45.191Z,78.90
2018-09-03T07:17:12.618Z,79.50
2018-09-03T07:19:40.076Z,78.80
2018-09-03T07:22:07.459Z,79.90
2018-09-03T07:24:34.938Z,79.50
2018-09-03T07:27:02.377Z,79.90
2018-09-03T07:29:29.920Z,80.30
2018-09-03T07:31:57.362Z,79.90
2018-09-03T07:34:24.815Z,80.30
2018-09-03T07:36:52.304Z,80.50
2018-09-03T07:39:19.709Z,80.60
2018-09-03T07:41:47.168Z,80.70
2018-09-03T07:44:14.569Z,80.00
2018-09-03T07:46:41.996Z,78.70
2018-09-03T07:49:09.500Z,78.30
2018-09-03T07:51:37.052Z,78.30
2018-09-03T07:54:04.506Z,78.10
2018-09-03T07:56:31.976Z,77.70
2018-09-03T07:58:59.854Z,79.90
2018-09-03T08:01:27.364Z,78.00
2018-09-03T08:03:54.903Z,77.70
2018-09-03T08:06:22.382Z,78.20
2018-09-03T08:08:49.868Z,77.50
2018-09-03T08:11:17.385Z,78.10
2018-09-03T08:13:44.904Z,78.90
2018-09-03T08:16:12.599Z,77.50
2018-09-03T08:18:40.700Z,79.30
2018-09-03T08:21:08.160Z,80.00
2018-09-03T08:23:35.686Z,77.50
2018-09-03T08:26:03.529Z,76.90
2018-09-03T08:28:31.066Z,76.90
2018-09-03T08:30:58.878Z,78.40
2018-09-03T08:33:26.326Z,79.00
2018-09-03T08:35:53.683Z,78.80
2018-09-03T08:38:21.127Z,79.40
2018-09-03T08:40:48.490Z,80.50
2018-09-03T08:43:16.108Z,80.80
2018-09-03T08:45:43.528Z,79.20
2018-09-03T08:48:10.910Z,79.30
2018-09-03T08:50:38.689Z,78.20
2018-09-03T08:53:06.104Z,78.40
2018-09-03T08:55:33.579Z,79.00
2018-09-03T08:58:00.890Z,78.30
2018-09-03T09:00:28.370Z,78.60
2018-09-03T09:02:55.772Z,78.40
2018-09-03T09:05:23.268Z,78.50
2018-09-03T09:07:50.719Z,77.70
2018-09-03T09:10:18.245Z,78.00
2018-09-03T09:12:45.710Z,77.10
2018-09-03T09:15:13.129Z,77.00
2018-09-03T09:17:40.599Z,75.50
2018-09-03T09:20:07.994Z,74.40
2018-09-03T09:22:35.520Z,74.20
2018-09-03T09:25:03.024Z,74.20
2018-09-03T09:27:30.376Z,73.40
2018-09-03T09:29:57.863Z,75.30
2018-09-03T09:32:25.334Z,72.80
2018-09-03T09:34:52.788Z,72.50
2018-09-03T09:37:20.252Z,74.50
2018-09-03T09:39:47.658Z,73.40
2018-09-03T09:42:15.130Z,72.30
2018-09-03T09:44:42.567Z,72.70
2018-09-03T09:47:10.005Z,69.90
2018-09-03T09:49:37.551Z,70.10
2018-09-03T09:52:05.023Z,69.90
2018-09-03T09:54:32.494Z,70.20
2018-09-03T09:56:59.968Z,70.50
2018-09-03T09:59:27.463Z,70.60
2018-09-03T10:01:55.126Z,70.70
2018-09-03T10:04:22.631Z,71.40
2018-09-03T10:06:50.031Z,69.70
2018-09-03T10:09:17.480Z,69.50
2018-09-03T10:11:45.784Z,68.80
2018-09-03T10:14:13.177Z,67.00
2018-09-03T10:16:40.836Z,67.30
2018-09-03T10:19:08.362Z,67.30
2018-09-03T10:21:35.912Z,66.90
2018-09-03T10:24:03.403Z,66.50
2018-09-03T10:26:30.864Z,65.80
2018-09-03T10:28:58.350Z,64.80
2018-09-03T10:31:25.738Z,65.50
2018-09-03T10:33:53.235Z,64.90
2018-09-03T10:36:20.702Z,66.30
2018-09-03T10:38:48.105Z,62.80
2018-09-03T10:41:15.708Z,64.60
2018-09-03T10:43:43.109Z,65.50
2018-09-03T10:46:10.567Z,63.80
2018-09-03T10:48:38.130Z,65.50
2018-09-03T10:51:05.569Z,61.70
2018-09-03T10:53:32.958Z,62.30
2018-09-03T10:56:00.424Z,67.00
2018-09-03T10:58:27.876Z,62.20
2018-09-03T11:00:55.553Z,64.50
2018-09-03T11:03:23.020Z,63.80
2018-09-03T11:05:50.444Z,62.70
2018-09-03T11:08:17.953Z,61.60
2018-09-03T11:10:45.357Z,61.90
2018-09-03T11:13:12.862Z,60.40
2018-09-03T11:15:40.332Z,59.80
2018-09-03T11:18:07.768Z,60.70
2018-09-03T11:20:35.215Z,59.40
2018-09-03T11:23:02.634Z,58.90
2018-09-03T11:25:31.297Z,59.50
2018-09-03T11:27:59.016Z,58.20
2018-09-03T11:30:27.186Z,57.80
2018-09-03T11:32:57.602Z,56.10
2018-09-03T11:35:25.259Z,57.00
2018-09-03T11:37:52.721Z,54.30
2018-09-03T11:40:20.976Z,57.00
2018-09-03T11:42:48.375Z,56.50
2018-09-03T11:45:17.074Z,57.00
2018-09-03T11:47:46.368Z,57.40
2018-09-03T11:50:14.238Z,62.20
2018-09-03T11:52:41.687Z,57.80
2018-09-03T11:55:09.343Z,61.50
2018-09-03T11:57:37.057Z,63.30
2018-09-03T12:00:05.056Z,62.10
2018-09-03T12:02:32.509Z,61.30
2018-09-03T12:04:59.997Z,62.50
2018-09-03T12:07:27.510Z,62.70
2018-09-03T12:09:55.026Z,61.80
2018-09-03T12:12:22.573Z,62.60
2018-09-03T12:14:52.824Z,61.70
2018-09-03T12:17:20.415Z,61.10
2018-09-03T12:19:47.924Z,62.50
2018-09-03T12:22:15.274Z,62.00
2018-09-03T12:24:42.684Z,61.90
2018-09-03T12:27:10.126Z,61.40
2018-09-03T12:29:37.711Z,59.10
2018-09-03T12:32:05.322Z,59.20
2018-09-03T12:34:41.143Z,59.40
2018-09-03T12:37:08.653Z,60.80
2018-09-03T12:39:36.032Z,59.20
2018-09-03T12:42:03.581Z,60.40
2018-09-03T12:44:31.209Z,59.30
2018-09-03T12:46:58.911Z,57.30
2018-09-03T12:49:28.381Z,57.80
2018-09-03T12:51:55.823Z,57.90
2018-09-03T12:54:23.320Z,58.60
2018-09-03T12:56:50.802Z,58.00
2018-09-03T12:59:18.172Z,58.40
2018-09-03T13:01:45.580Z,58.60
2018-09-03T13:04:12.996Z,58.80
2018-09-03T13:06:40.472Z,58.00
2018-09-03T13:09:08.541Z,56.90
2018-09-03T13:11:36.112Z,56.20
2018-09-03T13:14:03.733Z,59.50
2018-09-03T13:16:31.295Z,55.70
2018-09-03T13:18:58.780Z,59.70
2018-09-03T13:21:26.185Z,56.60
2018-09-03T13:23:53.720Z,56.90
2018-09-03T13:26:23.334Z,57.90
2018-09-03T13:28:50.994Z,57.50
2018-09-03T13:31:18.519Z,55.10
2018-09-03T13:33:45.960Z,56.10
2018-09-03T13:36:13.484Z,56.10
2018-09-03T13:38:40.837Z,55.10
2018-09-03T13:41:08.368Z,55.40
2018-09-03T13:43:35.819Z,56.80
2018-09-03T13:46:03.328Z,56.60
2018-09-03T13:48:30.787Z,56.10
2018-09-03T13:50:58.156Z,55.80
2018-09-03T13:53:26.529Z,57.20
2018-09-03T13:55:54.309Z,59.70
2018-09-03T13:58:21.702Z,58.30
2018-09-03T14:00:49.098Z,60.70
2018-09-03T14:03:17.890Z,59.60
2018-09-03T14:05:46.582Z,60.20
2018-09-03T14:08:14.006Z,59.40
2018-09-03T14:10:41.504Z,60.60
2018-09-03T14:13:08.933Z,61.10
2018-09-03T14:15:36.379Z,60.70
2018-09-03T14:18:03.791Z,60.40
2018-09-03T14:20:31.700Z,61.00
2018-09-03T14:22:59.832Z,60.50
2018-09-03T14:25:27.188Z,59.10
2018-09-03T14:27:54.713Z,58.30
2018-09-03T14:30:22.156Z,60.20
2018-09-03T14:32:50.057Z,57.90
2018-09-03T14:35:17.422Z,59.20
2018-09-03T14:37:44.920Z,59.50
2018-09-03T14:40:12.328Z,57.90
2018-09-03T14:42:41.920Z,56.50
2018-09-03T14:45:09.362Z,58.90
2018-09-03T14:47:36.938Z,61.80
2018-09-03T14:50:05.097Z,55.10
2018-09-03T14:52:32.592Z,54.70
2018-09-03T14:55:00.034Z,58.30
2018-09-03T14:57:27.466Z,56.80
2018-09-03T14:59:54.911Z,53.40
2018-09-03T15:02:22.459Z,53.20
2018-09-03T15:04:49.797Z,53.60
2018-09-03T15:07:17.223Z,54.80
2018-09-03T15:09:44.566Z,54.50
2018-09-03T15:12:12.004Z,56.00
2018-09-03T15:14:39.555Z,55.10
2018-09-03T15:17:07.008Z,54.50
2018-09-03T15:19:34.430Z,51.70
2018-09-03T15:22:01.962Z,53.90
2018-09-03T15:24:29.367Z,55.40
2018-09-03T15:26:56.883Z,56.20
2018-09-03T15:29:24.420Z,57.50
2018-09-03T15:31:51.914Z,58.90
2018-09-03T15:34:19.349Z,59.50
2018-09-03T15:36:46.881Z,57.80
2018-09-03T15:39:14.313Z,59.80
2018-09-03T15:41:42.189Z,58.00
2018-09-03T15:44:09.603Z,57.10
2018-09-03T15:46:37.016Z,58.70
2018-09-03T15:49:04.475Z,59.10
2018-09-03T15:51:31.895Z,59.70
2018-09-03T15:53:59.431Z,57.50
2018-09-03T15:56:26.908Z,58.00
2018-09-03T15:58:54.374Z,57.70
2018-09-03T16:01:21.732Z,57.80
2018-09-03T16:03:49.170Z,59.10
2018-09-03T16:06:16.700Z,57.20
2018-09-03T16:08:44.102Z,58.10
2018-09-03T16:11:11.624Z,58.50
2018-09-03T16:13:38.951Z,57.10
2018-09-03T16:16:06.439Z,56.00
2018-09-03T16:18:34.083Z,57.80
2018-09-03T16:21:01.563Z,56.30
2018-09-03T16:23:29.006Z,56.20
2018-09-03T16:25:56.479Z,55.70
2018-09-03T16:28:23.928Z,57.20
2018-09-03T16:30:51.352Z,57.60
2018-09-03T16:33:19.065Z,58.80
2018-09-03T16:35:46.561Z,58.10
2018-09-03T16:38:14.071Z,58.40
2018-09-03T16:40:41.695Z,58.90
2018-09-03T16:43:09.116Z,59.70
2018-09-03T16:45:36.592Z,60.80
2018-09-03T16:48:04.004Z,61.50
2018-09-03T16:50:31.406Z,62.00
2018-09-03T16:52:58.901Z,63.20
2018-09-03T16:55:26.340Z,62.90
2018-09-03T16:57:53.853Z,62.70
2018-09-03T17:00:21.217Z,62.90
2018-09-03T17:02:48.677Z,63.10
2018-09-03T17:05:16.152Z,62.60
2018-09-03T17:07:43.774Z,61.80
2018-09-03T17:10:11.130Z,62.30
2018-09-03T17:12:38.530Z,63.90
2018-09-03T17:15:06.032Z,64.20
2018-09-03T17:17:33.447Z,64.00
2018-09-03T17:20:00.890Z,63.30
2018-09-03T17:22:28.506Z,62.50
2018-09-03T17:24:56.064Z,62.30
2018-09-03T17:27:23.546Z,62.00
2018-09-03T17:29:51.096Z,61.70
2018-09-03T17:32:18.536Z,61.40
2018-09-03T17:34:46.285Z,61.20
2018-09-03T17:37:13.658Z,61.10
2018-09-03T17:39:41.107Z,61.30
2018-09-03T17:42:08.536Z,61.80
2018-09-03T17:44:36.034Z,63.20
2018-09-03T17:47:03.484Z,65.50
2018-09-03T17:49:31.000Z,66.10
2018-09-03T17:51:58.840Z,65.90
2018-09-03T17:54:26.280Z,65.00
2018-09-03T17:56:53.620Z,64.40
2018-09-03T17:59:20.981Z,64.10
2018-09-03T18:01:48.510Z,63.70
2018-09-03T18:04:15.925Z,63.40
2018-09-03T18:06:43.376Z,63.90
2018-09-03T18:09:10.796Z,64.20
2018-09-03T18:11:38.234Z,64.30
2018-09-03T18:14:05.694Z,64.40
2018-09-03T18:16:33.111Z,64.40
2018-09-03T18:19:00.560Z,64.30
2018-09-03T18:21:28.043Z,64.10
2018-09-03T18:23:55.448Z,63.60
2018-09-03T18:26:22.836Z,63.30
2018-09-03T18:28:50.233Z,63.50
2018-09-03T18:31:17.738Z,63.40
2018-09-03T18:33:45.220Z,63.40
2018-09-03T18:36:12.622Z,64.00
2018-09-03T18:38:40.010Z,64.60
2018-09-03T18:41:07.436Z,64.60
2018-09-03T18:43:34.821Z,65.00
2018-09-03T18:46:02.292Z,65.30
2018-09-03T18:48:30.753Z,65.20
2018-09-03T18:50:58.307Z,64.70
2018-09-03T18:53:27.812Z,64.60
2018-09-03T18:55:55.213Z,63.70
2018-09-03T18:58:22.614Z,63.30
2018-09-03T19:00:50.059Z,63.20
2018-09-03T19:03:17.411Z,63.80
2018-09-03T19:05:44.915Z,64.10
2018-09-03T19:08:12.352Z,63.90
2018-09-03T19:10:39.800Z,64.20
2018-09-03T19:13:07.400Z,64.10
2018-09-03T19:15:34.874Z,64.50
2018-09-03T19:18:02.347Z,64.10
2018-09-03T19:20:29.871Z,63.60
2018-09-03T19:22:57.445Z,65.00
2018-09-03T19:25:24.964Z,64.70
2018-09-03T19:27:52.425Z,65.40
2018-09-03T19:30:19.953Z,64.50
2018-09-03T19:32:47.544Z,64.20
2018-09-03T19:35:15.085Z,64.20
2018-09-03T19:37:42.666Z,64.00
2018-09-03T19:40:10.216Z,63.90
2018-09-03T19:42:37.717Z,64.10
2018-09-03T19:45:05.254Z,64.40
2018-09-03T19:47:32.816Z,64.40
2018-09-03T19:50:00.329Z,64.40
2018-09-03T19:52:27.870Z,64.70
2018-09-03T19:54:55.376Z,65.20
2018-09-03T19:57:22.951Z,65.20
2018-09-03T19:59:51.432Z,65.50
2018-09-03T20:02:18.865Z,65.70
2018-09-03T20:04:46.324Z,65.60
2018-09-03T20:07:13.809Z,66.00
2018-09-03T20:09:41.393Z,66.00
2018-09-03T20:12:09.134Z,65.50
2018-09-03T20:14:36.763Z,65.60
2018-09-03T20:17:04.457Z,65.70
2018-09-03T20:19:31.988Z,65.90
2018-09-03T20:21:59.550Z,65.90
2018-09-03T20:24:27.151Z,65.40
2018-09-03T20:26:54.544Z,65.80
2018-09-03T20:29:22.022Z,66.20
2018-09-03T20:31:49.613Z,66.00
2018-09-03T20:34:17.070Z,66.90
2018-09-03T20:36:44.534Z,67.60
2018-09-03T20:39:12.046Z,68.00
2018-09-03T20:41:39.610Z,67.80
2018-09-03T20:44:07.081Z,67.80
2018-09-03T20:46:34.624Z,67.80
2018-09-03T20:49:02.031Z,67.70
2018-09-03T20:51:29.592Z,67.90
2018-09-03T20:53:57.042Z,67.80
2018-09-03T20:56:24.459Z,67.70
2018-09-03T20:58:51.954Z,67.70
2018-09-03T21:01:19.339Z,68.00
2018-09-03T21:03:46.772Z,68.10
2018-09-03T21:06:14.240Z,67.30
2018-09-03T21:08:41.775Z,67.90
2018-09-03T21:11:09.254Z,68.20
2018-09-03T21:13:36.652Z,68.50
2018-09-03T21:16:04.187Z,68.60
2018-09-03T21:18:31.570Z,68.50
2018-09-03T21:20:58.999Z,68.20
2018-09-03T21:23:26.419Z,68.10
2018-09-03T21:25:53.843Z,68.60
2018-09-03T21:28:21.275Z,68.80
2018-09-03T21:30:48.756Z,68.80
2018-09-03T21:33:16.188Z,69.00
2018-09-03T21:35:43.608Z,69.10
2018-09-03T21:38:11.131Z,69.20
2018-09-03T21:40:38.580Z,69.10
2018-09-03T21:43:06.077Z,69.10
2018-09-03T21:45:34.366Z,69.00
2018-09-03T21:48:01.777Z,69.30
2018-09-03T21:50:29.222Z,69.30
2018-09-03T21:52:56.653Z,69.00
2018-09-03T21:55:24.179Z,69.20
2018-09-03T21:57:51.540Z,69.30
2018-09-03T22:00:19.025Z,69.50
2018-09-03T22:02:46.535Z,69.50
2018-09-03T22:05:13.918Z,69.90
2018-09-03T22:07:41.257Z,69.50
2018-09-03T22:10:08.718Z,69.90
2018-09-03T22:12:36.114Z,69.60
2018-09-03T22:15:03.770Z,69.90
2018-09-03T22:17:31.341Z,69.90
2018-09-03T22:19:58.840Z,70.30
2018-09-03T22:22:26.367Z,70.60
2018-09-03T22:24:53.843Z,70.40
2018-09-03T22:27:21.328Z,70.50
2018-09-03T22:29:48.737Z,70.80
2018-09-03T22:32:16.135Z,71.00
2018-09-03T22:34:43.597Z,71.40
2018-09-03T22:37:10.978Z,71.70
2018-09-03T22:39:38.398Z,72.10
2018-09-03T22:42:05.835Z,72.30
2018-09-03T22:44:33.292Z,72.20
2018-09-03T22:47:00.785Z,72.50
2018-09-03T22:49:28.252Z,72.30
2018-09-03T22:51:55.724Z,72.20
2018-09-03T22:54:23.172Z,72.10
2018-09-03T22:56:50.668Z,72.20
2018-09-03T22:59:19.213Z,72.10
2018-09-03T23:01:46.608Z,73.10
2018-09-03T23:04:14.080Z,73.50
2018-09-03T23:06:41.427Z,73.20
2018-09-03T23:09:08.787Z,73.60
2018-09-03T23:11:36.252Z,73.30
2018-09-03T23:14:04.062Z,73.20
2018-09-03T23:16:31.488Z,73.10
2018-09-03T23:18:58.954Z,73.20
2018-09-03T23:21:26.447Z,73.30
2018-09-03T23:23:53.943Z,73.20
2018-09-03T23:26:21.286Z,73.30
2018-09-03T23:28:48.687Z,73.20
2018-09-03T23:31:16.092Z,73.30
2018-09-03T23:33:43.485Z,73.30
2018-09-03T23:36:10.917Z,73.30
2018-09-03T23:38:38.317Z,73.60
2018-09-03T23:41:05.766Z,74.10
2018-09-03T23:43:33.324Z,74.50
2018-09-03T23:46:00.720Z,73.70
2018-09-03T23:48:28.104Z,73.30
2018-09-03T23:50:55.589Z,72.90
2018-09-03T23:53:23.029Z,72.80
2018-09-03T23:55:50.534Z,72.60
2018-09-03T23:58:17.868Z,73.90
